Time;durP1;ratioP1;P1;durP2;ratioP2;P2;SDS_P1;SDS_P2;PMS_P1;PMS_P2;Temp;Humidity;BMP_temperature;BMP_pressure;BME280_temperature;BME280_humidity;BME280_pressure;Samples;Min_cycle;Max_cycle;Signal;HPM_P1;HPM_P2
2022/05/20 00:01:02;;;;;;;;;;;22.50;64.90;;;;;;5073418;28;19913;-88
2022/05/20 00:03:29;;;;;;;;;;;22.40;65.10;;;;;;5054835;28;20011;-88
2022/05/20 00:05:55;;;;;;;;;;;22.40;65.10;;;;;;5055029;28;19913;-88
2022/05/20 00:08:20;;;;;;;;;;;22.30;65.30;;;;;;5073728;28;19927;-87
2022/05/20 00:10:46;;;;;;;;;;;22.30;65.50;;;;;;5073102;28;19919;-87
2022/05/20 00:13:11;;;;;;;;;;;22.30;65.60;;;;;;5055225;28;19921;-88
2022/05/20 00:15:37;;;;;;;;;;;22.30;65.70;;;;;;5054800;28;19932;-87
2022/05/20 00:18:02;;;;;;;;;;;22.30;65.60;;;;;;5072993;28;19916;-88
2022/05/20 00:20:28;;;;;;;;;;;22.30;65.40;;;;;;5054927;28;19998;-88
2022/05/20 00:22:54;;;;;;;;;;;22.30;65.00;;;;;;5072362;28;19920;-88
2022/05/20 00:28:05;;;;;;;;;;;22.10;64.50;;;;;;5073045;28;19935;-88
2022/05/20 00:30:31;;;;;;;;;;;22.00;64.70;;;;;;5073217;28;19908;-88
2022/05/20 00:32:56;;;;;;;;;;;22.00;64.80;;;;;;5073280;28;19967;-88
2022/05/20 00:35:22;;;;;;;;;;;21.90;64.90;;;;;;5073096;28;19978;-88
2022/05/20 00:37:47;;;;;;;;;;;21.80;65.00;;;;;;5072943;28;20388;-88
2022/05/20 00:40:15;;;;;;;;;;;21.80;65.00;;;;;;5054852;28;19943;-88
2022/05/20 00:42:41;;;;;;;;;;;21.80;64.90;;;;;;5054736;28;19923;-88
2022/05/20 00:45:06;;;;;;;;;;;21.70;64.40;;;;;;5072617;28;19909;-87
2022/05/20 00:47:32;;;;;;;;;;;21.50;63.90;;;;;;5072443;28;19951;-87
2022/05/20 00:50:00;;;;;;;;;;;21.40;63.70;;;;;;5073202;28;20432;-87
2022/05/20 00:52:28;;;;;;;;;;;21.30;63.50;;;;;;5054834;28;20097;-87
2022/05/20 00:54:56;;;;;;;;;;;21.20;63.40;;;;;;5054897;28;19970;-87
2022/05/20 00:57:23;;;;;;;;;;;21.00;63.20;;;;;;5054707;28;20359;-87
2022/05/20 00:59:52;;;;;;;;;;;20.90;63.30;;;;;;5054547;28;19928;-87
2022/05/20 01:02:19;;;;;;;;;;;20.70;63.30;;;;;;5072731;28;19994;-87
2022/05/20 01:04:45;;;;;;;;;;;20.60;63.40;;;;;;5072871;28;19955;-87
2022/05/20 01:07:11;;;;;;;;;;;20.50;63.60;;;;;;5054478;28;20041;-87
2022/05/20 01:09:36;;;;;;;;;;;20.40;63.50;;;;;;5072826;28;20007;-87
2022/05/20 01:12:02;;;;;;;;;;;20.30;63.40;;;;;;5072563;28;20003;-87
2022/05/20 01:14:28;;;;;;;;;;;20.20;63.30;;;;;;5054145;28;19909;-86
2022/05/20 01:16:53;;;;;;;;;;;20.10;63.50;;;;;;5072299;28;20038;-87
2022/05/20 01:19:26;;;;;;;;;;;20.00;63.50;;;;;;5054357;28;19958;-87
2022/05/20 01:21:52;;;;;;;;;;;19.90;63.30;;;;;;5054677;28;19917;-87
2022/05/20 01:24:17;;;;;;;;;;;19.80;63.10;;;;;;5054526;28;20022;-86
2022/05/20 01:26:42;;;;;;;;;;;19.70;63.30;;;;;;5071752;28;19928;-87
2022/05/20 01:29:08;;;;;;;;;;;19.70;63.40;;;;;;5054051;28;19921;-88
2022/05/20 01:31:33;;;;;;;;;;;19.60;63.70;;;;;;5054210;28;19925;-86
2022/05/20 01:33:59;;;;;;;;;;;19.50;63.70;;;;;;5072057;28;19909;-87
2022/05/20 01:36:25;;;;;;;;;;;19.50;63.50;;;;;;5075189;28;19916;-86
2022/05/20 01:38:52;;;;;;;;;;;19.30;63.40;;;;;;5075644;28;19909;-87
2022/05/20 01:41:21;;;;;;;;;;;19.30;63.50;;;;;;5057288;28;20050;-87
2022/05/20 01:43:46;;;;;;;;;;;19.20;63.30;;;;;;5056838;28;19924;-87
2022/05/20 01:46:21;;;;;;;;;;;19.20;63.30;;;;;;5057087;28;19917;-87
2022/05/20 01:48:52;;;;;;;;;;;19.10;63.30;;;;;;5057107;28;19916;-87
2022/05/20 01:51:21;;;;;;;;;;;19.00;63.40;;;;;;5057230;28;20340;-87
2022/05/20 01:53:55;;;;;;;;;;;18.90;63.40;;;;;;5056884;28;19913;-88
2022/05/20 01:56:27;;;;;;;;;;;18.80;63.20;;;;;;5056762;28;19917;-88
2022/05/20 01:59:03;;;;;;;;;;;18.80;63.10;;;;;;5057285;28;19939;-87
2022/05/20 02:01:33;;;;;;;;;;;18.70;63.00;;;;;;5059366;28;19991;-88
2022/05/20 02:04:19;;;;;;;;;;;18.60;63.00;;;;;;5076519;28;20375;-87
2022/05/20 02:06:49;;;;;;;;;;;18.60;62.90;;;;;;5073867;28;19924;-88
2022/05/20 02:09:17;;;;;;;;;;;18.50;62.90;;;;;;5057384;28;20022;-87
2022/05/20 02:11:54;;;;;;;;;;;18.40;63.20;;;;;;5059906;28;19916;-88
2022/05/20 02:14:35;;;;;;;;;;;18.40;63.30;;;;;;5058446;28;19966;-87
2022/05/20 02:17:05;;;;;;;;;;;18.30;63.30;;;;;;5058179;28;19974;-88
2022/05/20 02:19:33;;;;;;;;;;;18.20;63.20;;;;;;5058664;28;19975;-87
2022/05/20 02:22:00;;;;;;;;;;;18.20;63.30;;;;;;5076826;28;19967;-87
2022/05/20 02:24:27;;;;;;;;;;;18.10;63.20;;;;;;5075956;28;19920;-87
2022/05/20 02:26:55;;;;;;;;;;;18.10;63.50;;;;;;5057916;28;19923;-88
2022/05/20 02:29:23;;;;;;;;;;;18.20;63.90;;;;;;5057448;28;19924;-88
2022/05/20 02:31:52;;;;;;;;;;;18.20;64.30;;;;;;5077694;28;20368;-89
2022/05/20 02:34:17;;;;;;;;;;;18.30;64.70;;;;;;5076339;28;19920;-88
2022/05/20 02:36:43;;;;;;;;;;;18.40;64.90;;;;;;5076224;28;19925;-88
2022/05/20 02:39:15;;;;;;;;;;;18.40;65.00;;;;;;5076502;28;19915;-88
2022/05/20 02:41:44;;;;;;;;;;;18.40;65.00;;;;;;5058634;28;19923;-88
2022/05/20 02:44:09;;;;;;;;;;;18.40;64.70;;;;;;5075780;28;19920;-87
2022/05/20 02:46:36;;;;;;;;;;;18.30;64.50;;;;;;5056662;28;20253;-86
2022/05/20 02:49:02;;;;;;;;;;;18.30;64.20;;;;;;5075864;28;20004;-87
2022/05/20 02:51:27;;;;;;;;;;;18.20;64.10;;;;;;5074864;28;20229;-86
2022/05/20 02:53:53;;;;;;;;;;;18.20;64.10;;;;;;5076782;28;19913;-87
2022/05/20 02:56:18;;;;;;;;;;;18.10;64.10;;;;;;5060739;28;19928;-88
2022/05/20 03:04:12;;;;;;;;;;;18.20;64.90;;;;;;5055640;28;19963;-87
2022/05/20 03:06:43;;;;;;;;;;;18.20;65.00;;;;;;5055601;28;19928;-87
2022/05/20 03:09:10;;;;;;;;;;;18.30;64.90;;;;;;5036471;28;20283;-87
2022/05/20 03:11:35;;;;;;;;;;;18.30;64.90;;;;;;5054103;28;19916;-88
2022/05/20 03:14:03;;;;;;;;;;;18.30;64.70;;;;;;5039390;28;19938;-88
2022/05/20 03:16:29;;;;;;;;;;;18.30;64.80;;;;;;5055065;28;20635;-87
2022/05/20 03:18:54;;;;;;;;;;;18.30;64.90;;;;;;5055498;28;19920;-87
2022/05/20 03:21:20;;;;;;;;;;;18.30;65.10;;;;;;5056771;28;19916;-87
2022/05/20 03:23:45;;;;;;;;;;;18.40;65.10;;;;;;5056834;28;20007;-88
2022/05/20 03:26:11;;;;;;;;;;;18.50;65.10;;;;;;5056487;28;19919;-87
2022/05/20 03:28:37;;;;;;;;;;;18.50;65.10;;;;;;5056945;28;19927;-87
2022/05/20 03:31:07;;;;;;;;;;;18.60;65.10;;;;;;5055659;28;19912;-87
2022/05/20 03:33:33;;;;;;;;;;;18.70;65.10;;;;;;5075232;28;19913;-87
2022/05/20 03:35:59;;;;;;;;;;;18.70;65.20;;;;;;5073476;28;19917;-87
2022/05/20 03:38:24;;;;;;;;;;;18.80;65.20;;;;;;5055616;28;19920;-87
2022/05/20 03:40:50;;;;;;;;;;;18.80;65.20;;;;;;5073555;28;20212;-87
2022/05/20 03:43:15;;;;;;;;;;;18.90;65.20;;;;;;5073581;28;20443;-87
2022/05/20 03:45:42;;;;;;;;;;;19.00;65.20;;;;;;5073866;28;19908;-86
2022/05/20 03:48:08;;;;;;;;;;;19.00;65.10;;;;;;5055301;28;19978;-87
2022/05/20 03:50:33;;;;;;;;;;;19.00;65.10;;;;;;5055404;28;19909;-87
2022/05/20 03:52:59;;;;;;;;;;;19.00;65.20;;;;;;5055577;28;19917;-87
2022/05/20 03:55:25;;;;;;;;;;;19.10;65.20;;;;;;5073614;28;19920;-87
2022/05/20 03:57:51;;;;;;;;;;;19.10;65.20;;;;;;5072118;28;19916;-87
2022/05/20 04:00:17;;;;;;;;;;;19.20;65.20;;;;;;5055074;28;19920;-86
2022/05/20 04:02:42;;;;;;;;;;;19.20;65.20;;;;;;5073228;28;19993;-87
2022/05/20 04:05:08;;;;;;;;;;;19.20;65.20;;;;;;5055558;28;20011;-87
2022/05/20 04:07:34;;;;;;;;;;;19.30;65.20;;;;;;5072978;28;19935;-87
2022/05/20 04:09:59;;;;;;;;;;;19.30;65.00;;;;;;5073104;28;20355;-88
2022/05/20 04:12:26;;;;;;;;;;;19.30;65.00;;;;;;5055437;28;19955;-85
2022/05/20 04:14:52;;;;;;;;;;;19.30;64.90;;;;;;5054830;28;20011;-86
2022/05/20 04:17:18;;;;;;;;;;;19.40;64.80;;;;;;5073181;28;20007;-86
2022/05/20 04:19:44;;;;;;;;;;;19.40;64.80;;;;;;5073238;28;19963;-86
2022/05/20 04:22:11;;;;;;;;;;;19.50;64.90;;;;;;5077608;28;19916;-87
2022/05/20 04:24:37;;;;;;;;;;;19.60;65.10;;;;;;5073582;28;19913;-88
2022/05/20 04:27:02;;;;;;;;;;;19.70;65.10;;;;;;5054956;28;19965;-88
2022/05/20 04:29:28;;;;;;;;;;;19.70;65.20;;;;;;5054906;28;19913;-87
2022/05/20 04:31:53;;;;;;;;;;;19.80;65.20;;;;;;5074143;28;19912;-88
2022/05/20 04:34:19;;;;;;;;;;;19.80;65.30;;;;;;5055306;28;19912;-88
2022/05/20 04:36:45;;;;;;;;;;;20.00;66.10;;;;;;5073316;28;19912;-88
2022/05/20 04:39:12;;;;;;;;;;;20.20;66.20;;;;;;5060579;28;19922;-88
2022/05/20 04:47:08;;;;;;;;;;;20.30;65.20;;;;;;5073538;28;19927;-88
2022/05/20 04:49:37;;;;;;;;;;;20.30;65.10;;;;;;5073048;28;19966;-88
2022/05/20 04:52:03;;;;;;;;;;;20.40;65.20;;;;;;5073310;28;19913;-87
2022/05/20 04:57:18;;;;;;;;;;;20.70;65.80;;;;;;5074391;28;19915;-88
2022/05/20 04:59:43;;;;;;;;;;;20.80;66.40;;;;;;5073391;28;20390;-89
2022/05/20 05:02:09;;;;;;;;;;;21.20;67.70;;;;;;5055085;28;19912;-88
2022/05/20 05:04:34;;;;;;;;;;;21.60;68.50;;;;;;5073997;28;19916;-89
2022/05/20 05:07:00;;;;;;;;;;;22.00;69.40;;;;;;5073251;28;20332;-88
2022/05/20 05:09:25;;;;;;;;;;;22.50;70.30;;;;;;5057900;28;19931;-87
2022/05/20 05:11:51;;;;;;;;;;;23.00;70.10;;;;;;5076805;28;19916;-88
2022/05/20 05:14:16;;;;;;;;;;;23.40;69.60;;;;;;5077036;28;19925;-89
2022/05/20 05:16:43;;;;;;;;;;;23.80;69.50;;;;;;5058590;28;19909;-89
2022/05/20 05:19:08;;;;;;;;;;;24.20;69.70;;;;;;5077126;28;20007;-88
2022/05/20 05:21:34;;;;;;;;;;;24.60;70.40;;;;;;5059400;28;19952;-89
2022/05/20 05:24:00;;;;;;;;;;;25.10;70.80;;;;;;5059019;28;19917;-89
2022/05/20 05:26:27;;;;;;;;;;;25.60;70.80;;;;;;5076825;28;19919;-89
2022/05/20 05:28:52;;;;;;;;;;;26.10;70.40;;;;;;5058659;28;19924;-89
2022/05/20 05:31:18;;;;;;;;;;;26.50;69.90;;;;;;5058648;28;19978;-89
2022/05/20 05:33:43;;;;;;;;;;;26.90;70.10;;;;;;5058733;28;19917;-89
2022/05/20 05:36:09;;;;;;;;;;;27.30;69.80;;;;;;5058954;28;19920;-87
2022/05/20 05:38:34;;;;;;;;;;;27.70;69.90;;;;;;5058490;28;19952;-88
2022/05/20 05:41:00;;;;;;;;;;;28.10;69.70;;;;;;5076567;28;19912;-88
2022/05/20 05:43:26;;;;;;;;;;;28.40;69.00;;;;;;5076538;28;19920;-88
2022/05/20 05:45:52;;;;;;;;;;;28.70;68.50;;;;;;5076531;28;19916;-88
2022/05/20 05:48:17;;;;;;;;;;;28.90;68.50;;;;;;5075418;28;19931;-88
2022/05/20 05:50:43;;;;;;;;;;;29.20;68.20;;;;;;5075636;28;19918;-87
2022/05/20 05:53:10;;;;;;;;;;;29.40;68.80;;;;;;5075996;28;19916;-88
2022/05/20 05:55:35;;;;;;;;;;;29.70;68.50;;;;;;5057803;28;19931;-88
2022/05/20 05:58:01;;;;;;;;;;;30.00;68.30;;;;;;5056197;28;19912;-88
2022/05/20 06:00:26;;;;;;;;;;;30.10;67.00;;;;;;5072552;28;19917;-88
2022/05/20 06:02:52;;;;;;;;;;;30.20;65.70;;;;;;5054561;28;19919;-88
2022/05/20 06:05:18;;;;;;;;;;;30.30;65.30;;;;;;5072852;28;19944;-88
2022/05/20 06:07:43;;;;;;;;;;;30.40;66.80;;;;;;5055128;28;19981;-88
2022/05/20 06:10:09;;;;;;;;;;;30.70;67.30;;;;;;5054697;28;19959;-88
2022/05/20 06:12:35;;;;;;;;;;;31.00;67.30;;;;;;5073088;28;20011;-88
2022/05/20 06:15:05;;;;;;;;;;;31.30;68.00;;;;;;5055448;28;19964;-88
2022/05/20 06:17:31;;;;;;;;;;;31.60;68.30;;;;;;5054760;28;19916;-89
2022/05/20 06:19:56;;;;;;;;;;;31.90;66.90;;;;;;5072310;28;20305;-89
2022/05/20 06:22:22;;;;;;;;;;;32.20;67.70;;;;;;5072980;28;19917;-88
2022/05/20 06:24:47;;;;;;;;;;;32.50;68.00;;;;;;5055609;28;20034;-89
2022/05/20 06:27:13;;;;;;;;;;;32.90;68.80;;;;;;5055173;28;20025;-89
2022/05/20 06:29:38;;;;;;;;;;;33.30;69.10;;;;;;5056199;28;19917;-89
2022/05/20 06:32:04;;;;;;;;;;;33.70;66.20;;;;;;5073855;28;19928;-89
2022/05/20 06:39:48;;;;;;;;;;;34.10;66.10;;;;;;5055878;28;20002;-89
2022/05/20 06:40:06;;;;;;;;;;;34.30;58.90;;;;;;5073227;28;20041;-89
2022/05/20 06:42:32;;;;;;;;;;;34.40;58.70;;;;;;5055779;28;19916;-87
2022/05/20 06:44:57;;;;;;;;;;;34.50;59.50;;;;;;5073710;28;19913;-88
2022/05/20 06:47:23;;;;;;;;;;;34.70;59.80;;;;;;5056761;28;20308;-88
2022/05/20 06:49:48;;;;;;;;;;;35.00;59.40;;;;;;5072231;28;20035;-88
2022/05/20 06:52:14;;;;;;;;;;;35.40;59.00;;;;;;5078152;28;19924;-88
2022/05/20 06:54:39;;;;;;;;;;;35.70;58.50;;;;;;5054902;28;19919;-87
2022/05/20 06:57:05;;;;;;;;;;;36.00;58.80;;;;;;5066017;28;20009;-87
2022/05/20 06:59:30;;;;;;;;;;;36.20;57.20;;;;;;5051954;28;19936;-87
2022/05/20 07:02:00;;;;;;;;;;;36.40;56.70;;;;;;5056134;28;19927;-88
2022/05/20 07:04:27;;;;;;;;;;;36.80;55.80;;;;;;5053208;28;19912;-88
2022/05/20 07:06:52;;;;;;;;;;;37.20;53.30;;;;;;5055775;28;20590;-89
2022/05/20 07:09:18;;;;;;;;;;;37.40;48.70;;;;;;5081107;28;19912;-87
2022/05/20 07:11:43;;;;;;;;;;;37.40;48.90;;;;;;5077495;28;19947;-88
2022/05/20 07:14:09;;;;;;;;;;;37.40;50.10;;;;;;5082288;28;19960;-87
2022/05/20 07:16:34;;;;;;;;;;;37.70;49.20;;;;;;5055019;28;19927;-88
2022/05/20 07:19:00;;;;;;;;;;;37.90;46.60;;;;;;5058484;28;19973;-88
2022/05/20 07:21:25;;;;;;;;;;;38.20;46.00;;;;;;5075920;28;19955;-88
2022/05/20 07:23:51;;;;;;;;;;;38.50;47.40;;;;;;5075260;28;20363;-88
2022/05/20 07:26:17;;;;;;;;;;;38.80;45.80;;;;;;5060588;28;20036;-88
2022/05/20 07:28:43;;;;;;;;;;;39.20;46.50;;;;;;5071769;28;19970;-88
2022/05/20 07:31:08;;;;;;;;;;;39.50;45.30;;;;;;5050679;28;20391;-88
2022/05/20 07:33:34;;;;;;;;;;;39.70;43.80;;;;;;5052526;28;20004;-87
2022/05/20 07:36:00;;;;;;;;;;;39.80;40.90;;;;;;5047038;28;19979;-88
2022/05/20 07:38:25;;;;;;;;;;;39.80;39.30;;;;;;5061618;28;19919;-88
2022/05/20 07:40:51;;;;;;;;;;;40.00;40.30;;;;;;5047143;28;19931;-88
2022/05/20 07:43:20;;;;;;;;;;;40.20;35.90;;;;;;5072738;28;19916;-88
2022/05/20 07:45:46;;;;;;;;;;;40.30;35.40;;;;;;5062161;28;19999;-87
2022/05/20 07:48:11;;;;;;;;;;;40.30;33.40;;;;;;5053943;28;20328;-87
2022/05/20 07:50:42;;;;;;;;;;;40.20;33.80;;;;;;5061795;28;19924;-87
2022/05/20 07:53:20;;;;;;;;;;;40.20;33.10;;;;;;5075126;28;19951;-87
2022/05/20 07:55:51;;;;;;;;;;;40.10;32.10;;;;;;5074578;28;19916;-87
2022/05/20 07:58:18;;;;;;;;;;;40.20;32.10;;;;;;5058534;28;19921;-88
2022/05/20 08:00:45;;;;;;;;;;;40.30;32.10;;;;;;5059179;28;19925;-87
2022/05/20 08:03:13;;;;;;;;;;;40.40;31.00;;;;;;5061813;28;19917;-87
2022/05/20 08:05:39;;;;;;;;;;;40.70;31.40;;;;;;5065409;28;20402;-88
2022/05/20 08:08:06;;;;;;;;;;;41.00;30.50;;;;;;5061955;28;19921;-87
2022/05/20 08:10:33;;;;;;;;;;;41.20;28.00;;;;;;5065451;28;20004;-88
2022/05/20 08:12:59;;;;;;;;;;;41.10;28.10;;;;;;5065258;28;19920;-88
2022/05/20 08:15:25;;;;;;;;;;;41.20;27.70;;;;;;5061910;28;19947;-88
2022/05/20 08:17:50;;;;;;;;;;;41.40;27.80;;;;;;5069124;28;20312;-88
2022/05/20 08:20:21;;;;;;;;;;;41.50;26.90;;;;;;5058540;28;20011;-88
2022/05/20 08:22:47;;;;;;;;;;;41.70;26.90;;;;;;5068816;28;19915;-88
2022/05/20 08:25:13;;;;;;;;;;;41.80;26.50;;;;;;5066277;28;19924;-88
2022/05/20 08:27:38;;;;;;;;;;;42.00;25.00;;;;;;5075368;28;19920;-87
2022/05/20 08:30:06;;;;;;;;;;;42.00;25.00;;;;;;5061176;28;20600;-88
2022/05/20 08:32:32;;;;;;;;;;;42.00;24.60;;;;;;5057671;28;19912;-88
2022/05/20 08:34:57;;;;;;;;;;;42.10;24.10;;;;;;5074580;28;19934;-88
2022/05/20 08:37:22;;;;;;;;;;;42.20;24.00;;;;;;5068747;28;19920;-88
2022/05/20 08:39:48;;;;;;;;;;;42.50;23.60;;;;;;5065228;28;19921;-88
2022/05/20 08:42:17;;;;;;;;;;;42.50;22.30;;;;;;5053785;28;19923;-88
2022/05/20 08:44:43;;;;;;;;;;;42.30;22.30;;;;;;5079273;28;20402;-88
2022/05/20 08:47:14;;;;;;;;;;;42.00;22.20;;;;;;5076022;28;20337;-88
2022/05/20 08:49:40;;;;;;;;;;;41.80;22.00;;;;;;5078410;28;20443;-88
2022/05/20 08:52:05;;;;;;;;;;;41.80;21.50;;;;;;5078406;28;19995;-87
2022/05/20 08:54:31;;;;;;;;;;;41.30;20.90;;;;;;5080307;28;19916;-87
2022/05/20 08:56:56;;;;;;;;;;;41.00;21.20;;;;;;5063908;28;19933;-88
2022/05/20 08:59:22;;;;;;;;;;;40.90;21.50;;;;;;5062652;28;19912;-87
2022/05/20 09:01:50;;;;;;;;;;;41.00;21.10;;;;;;5077462;28;19972;-88
2022/05/20 09:04:18;;;;;;;;;;;41.30;21.30;;;;;;5063407;28;19928;-88
2022/05/20 09:07:01;;;;;;;;;;;41.50;21.10;;;;;;5078042;28;19928;-89
2022/05/20 09:09:28;;;;;;;;;;;41.60;20.30;;;;;;5067390;28;20019;-88
2022/05/20 09:11:55;;;;;;;;;;;41.70;20.10;;;;;;5070641;28;20007;-88
2022/05/20 09:17:10;;;;;;;;;;;42.10;19.80;;;;;;5090346;28;20267;-88
2022/05/20 09:19:36;;;;;;;;;;;42.40;20.10;;;;;;5082312;28;20022;-88
2022/05/20 09:22:07;;;;;;;;;;;42.40;18.80;;;;;;5067503;28;19916;-88
2022/05/20 09:24:37;;;;;;;;;;;42.30;18.50;;;;;;5077153;28;19901;-88
2022/05/20 09:27:04;;;;;;;;;;;42.20;18.80;;;;;;5078662;28;19931;-88
2022/05/20 09:29:31;;;;;;;;;;;42.30;18.40;;;;;;5076465;28;19916;-88
2022/05/20 09:32:02;;;;;;;;;;;42.20;18.20;;;;;;5066118;28;19939;-88
2022/05/20 09:34:27;;;;;;;;;;;42.20;18.80;;;;;;5073943;28;19917;-88
2022/05/20 09:36:55;;;;;;;;;;;42.30;18.90;;;;;;5067460;28;20038;-88
2022/05/20 09:39:29;;;;;;;;;;;42.50;19.30;;;;;;5091330;28;20042;-88
2022/05/20 09:41:56;;;;;;;;;;;42.80;19.40;;;;;;5076368;28;20261;-88
2022/05/20 09:44:24;;;;;;;;;;;43.10;18.60;;;;;;5054222;28;20435;-89
2022/05/20 09:46:55;;;;;;;;;;;43.10;18.90;;;;;;5058699;28;19927;-89
2022/05/20 09:49:52;;;;;;;;;;;43.40;18.80;;;;;;5086875;28;20260;-87
2022/05/20 09:52:26;;;;;;;;;;;43.30;18.60;;;;;;5070764;28;19959;-88
2022/05/20 09:54:59;;;;;;;;;;;43.50;18.40;;;;;;5070414;28;19917;-88
2022/05/20 09:57:36;;;;;;;;;;;43.50;18.80;;;;;;5076487;28;20291;-88
2022/05/20 10:00:05;;;;;;;;;;;43.60;18.70;;;;;;5054413;28;19919;-88
2022/05/20 10:02:43;;;;;;;;;;;43.70;18.60;;;;;;5061269;28;19967;-88
2022/05/20 10:05:11;;;;;;;;;;;43.70;18.60;;;;;;5061250;28;19926;-88
2022/05/20 10:07:46;;;;;;;;;;;43.70;18.30;;;;;;5081667;28;20007;-88
2022/05/20 10:10:26;;;;;;;;;;;43.80;18.40;;;;;;5067339;28;19916;-88
2022/05/20 10:12:54;;;;;;;;;;;43.80;18.40;;;;;;5063275;28;19916;-89
2022/05/20 10:15:22;;;;;;;;;;;43.70;18.40;;;;;;5064363;28;20003;-89
2022/05/20 10:18:01;;;;;;;;;;;43.70;18.80;;;;;;5073461;28;19923;-90
2022/05/20 10:20:26;;;;;;;;;;;43.70;18.70;;;;;;5072850;28;19920;-88
2022/05/20 10:22:52;;;;;;;;;;;43.50;18.40;;;;;;5078291;28;19952;-89
2022/05/20 10:25:24;;;;;;;;;;;43.10;18.60;;;;;;5068779;28;20003;-89
2022/05/20 10:27:55;;;;;;;;;;;42.70;18.80;;;;;;5069349;28;19929;-89
2022/05/20 10:33:11;;;;;;;;;;;42.30;19.20;;;;;;5075313;28;19927;-89
2022/05/20 10:35:55;;;;;;;;;;;42.60;19.40;;;;;;5063302;28;20292;-89
2022/05/20 10:38:48;;;;;;;;;;;42.60;19.20;;;;;;5083735;28;19916;-89
2022/05/20 10:41:19;;;;;;;;;;;42.30;19.20;;;;;;5056654;28;19939;-89
2022/05/20 10:49:34;;;;;;;;;;;41.00;20.60;;;;;;5082738;28;19969;-87
2022/05/20 10:52:05;;;;;;;;;;;40.90;20.70;;;;;;5064872;28;19928;-88
2022/05/20 10:54:50;;;;;;;;;;;40.80;20.70;;;;;;5066064;28;19948;-86
2022/05/20 10:57:39;;;;;;;;;;;40.40;20.90;;;;;;5054481;28;19920;-89
2022/05/20 11:00:08;;;;;;;;;;;40.00;21.40;;;;;;5075581;28;19916;-87
2022/05/20 11:02:43;;;;;;;;;;;39.70;21.80;;;;;;5063532;28;19912;-88
2022/05/20 11:05:22;;;;;;;;;;;40.00;22.00;;;;;;5067983;28;20836;-88
2022/05/20 11:07:56;;;;;;;;;;;40.30;21.90;;;;;;5058811;28;20298;-88
2022/05/20 11:10:26;;;;;;;;;;;40.30;21.80;;;;;;5075756;28;20330;-87
2022/05/20 11:12:51;;;;;;;;;;;40.40;21.60;;;;;;5075096;28;20732;-88
2022/05/20 11:15:32;;;;;;;;;;;40.10;21.70;;;;;;5072258;28;19913;-88
2022/05/20 11:18:03;;;;;;;;;;;40.00;22.00;;;;;;5087340;28;19964;-88
2022/05/20 11:20:47;;;;;;;;;;;40.20;22.00;;;;;;5061152;28;19912;-88
2022/05/20 11:23:18;;;;;;;;;;;40.30;22.00;;;;;;5069961;28;20423;-89
2022/05/20 11:26:03;;;;;;;;;;;40.90;22.00;;;;;;5065277;28;19912;-87
2022/05/20 11:28:29;;;;;;;;;;;41.40;21.60;;;;;;5078331;28;20031;-88
2022/05/20 11:31:18;;;;;;;;;;;41.70;21.10;;;;;;5067202;28;19959;-88
2022/05/20 11:34:00;;;;;;;;;;;41.90;20.80;;;;;;5081374;28;19950;-88
2022/05/20 11:36:33;;;;;;;;;;;42.10;20.70;;;;;;5060612;28;19917;-88
2022/05/20 11:39:02;;;;;;;;;;;41.80;20.70;;;;;;5066219;28;20364;-89
2022/05/20 11:41:28;;;;;;;;;;;41.70;21.10;;;;;;5067423;28;19923;-89
2022/05/20 11:44:01;;;;;;;;;;;41.80;21.10;;;;;;5073949;28;19920;-89
2022/05/20 11:46:45;;;;;;;;;;;42.00;21.10;;;;;;5073500;28;19973;-88
2022/05/20 11:49:21;;;;;;;;;;;42.30;20.60;;;;;;5067042;28;20362;-89
2022/05/20 11:52:05;;;;;;;;;;;42.60;20.40;;;;;;5063205;28;19917;-88
2022/05/20 11:54:57;;;;;;;;;;;42.80;20.30;;;;;;5069745;28;20031;-88
2022/05/20 11:57:25;;;;;;;;;;;42.90;20.20;;;;;;5065065;28;19923;-88
2022/05/20 11:59:53;;;;;;;;;;;42.80;20.20;;;;;;5062627;28;19913;-88
2022/05/20 12:02:19;;;;;;;;;;;42.50;20.50;;;;;;5066563;28;19925;-88
2022/05/20 12:04:47;;;;;;;;;;;42.40;20.70;;;;;;5075678;28;19912;-89
2022/05/20 12:07:14;;;;;;;;;;;42.20;20.80;;;;;;5079581;28;19995;-89
2022/05/20 12:09:41;;;;;;;;;;;42.00;21.00;;;;;;5065817;28;20015;-88
2022/05/20 12:12:11;;;;;;;;;;;41.80;21.20;;;;;;5067016;28;19973;-89
2022/05/20 12:15:09;;;;;;;;;;;41.30;21.80;;;;;;5060766;28;19919;-87
2022/05/20 12:17:53;;;;;;;;;;;41.20;22.10;;;;;;5045718;28;19937;-88
2022/05/20 12:25:53;;;;;;;;;;;41.30;22.40;;;;;;5079855;28;20030;-87
2022/05/20 12:28:22;;;;;;;;;;;41.50;22.30;;;;;;5076054;28;20402;-88
2022/05/20 12:31:02;;;;;;;;;;;41.20;22.40;;;;;;5062241;28;19917;-88
2022/05/20 12:33:48;;;;;;;;;;;40.90;23.00;;;;;;5051571;28;19919;-86
2022/05/20 12:36:31;;;;;;;;;;;40.60;23.30;;;;;;5073615;28;20015;-88
2022/05/20 12:39:06;;;;;;;;;;;40.20;23.80;;;;;;5071393;28;19912;-87
2022/05/20 12:41:39;;;;;;;;;;;39.80;24.30;;;;;;5061279;28;19916;-89
2022/05/20 12:44:17;;;;;;;;;;;39.60;24.50;;;;;;5059430;28;20003;-87
2022/05/20 12:47:02;;;;;;;;;;;39.60;24.90;;;;;;5075226;28;19921;-88
2022/05/20 12:49:31;;;;;;;;;;;39.70;25.10;;;;;;5031977;28;19951;-89
2022/05/20 12:52:04;;;;;;;;;;;39.90;25.20;;;;;;5057885;28;20265;-88
2022/05/20 12:54:30;;;;;;;;;;;40.40;24.80;;;;;;5065850;28;20264;-87
2022/05/20 12:57:03;;;;;;;;;;;40.60;24.30;;;;;;5071414;28;19920;-88
2022/05/20 12:59:29;;;;;;;;;;;40.90;24.50;;;;;;5050563;28;19973;-87
2022/05/20 13:01:57;;;;;;;;;;;41.00;24.00;;;;;;5059801;28;20331;-87
2022/05/20 13:04:24;;;;;;;;;;;40.80;24.10;;;;;;5066048;28;19916;-88
2022/05/20 13:06:50;;;;;;;;;;;40.50;24.50;;;;;;5083181;28;19924;-88
2022/05/20 13:09:26;;;;;;;;;;;40.10;24.90;;;;;;5066667;28;19919;-87
2022/05/20 13:11:52;;;;;;;;;;;39.50;25.40;;;;;;5064518;28;19968;-87
2022/05/20 13:14:19;;;;;;;;;;;39.00;25.90;;;;;;5071612;28;19913;-88
2022/05/20 13:16:46;;;;;;;;;;;38.70;26.50;;;;;;5071211;28;19928;-88
2022/05/20 13:19:13;;;;;;;;;;;38.50;26.80;;;;;;5063733;28;20295;-87
2022/05/20 13:21:42;;;;;;;;;;;38.20;27.30;;;;;;5073821;28;19975;-88
2022/05/20 13:24:12;;;;;;;;;;;38.10;27.30;;;;;;5065472;28;19912;-88
2022/05/20 13:26:37;;;;;;;;;;;38.00;27.60;;;;;;5047731;28;19955;-88
2022/05/20 13:29:11;;;;;;;;;;;38.00;27.80;;;;;;5070625;28;20002;-88
2022/05/20 13:31:36;;;;;;;;;;;37.80;27.70;;;;;;5069221;28;20007;-87
2022/05/20 13:34:03;;;;;;;;;;;37.30;28.10;;;;;;5071537;28;20031;-86
2022/05/20 13:36:33;;;;;;;;;;;36.80;28.70;;;;;;5079828;28;19916;-87
2022/05/20 13:39:00;;;;;;;;;;;36.50;29.40;;;;;;5072083;28;19916;-87
2022/05/20 13:41:27;;;;;;;;;;;36.30;29.70;;;;;;5071225;28;20347;-88
2022/05/20 13:43:54;;;;;;;;;;;35.70;30.40;;;;;;5059404;28;19952;-88
2022/05/20 13:49:15;;;;;;;;;;;34.80;32.00;;;;;;5079946;28;19970;-87
2022/05/20 13:51:43;;;;;;;;;;;34.50;32.50;;;;;;5075140;28;20398;-88
2022/05/20 13:54:11;;;;;;;;;;;34.20;33.00;;;;;;5069388;28;19924;-87
2022/05/20 13:56:38;;;;;;;;;;;33.80;33.50;;;;;;5052429;28;20327;-88
2022/05/20 13:59:22;;;;;;;;;;;33.50;34.10;;;;;;5086206;28;19996;-88
2022/05/20 14:01:53;;;;;;;;;;;33.20;34.70;;;;;;5050059;28;19925;-88
2022/05/20 14:04:19;;;;;;;;;;;32.80;35.30;;;;;;5088210;28;19943;-88
2022/05/20 14:06:44;;;;;;;;;;;32.40;35.70;;;;;;5055315;28;19916;-88
2022/05/20 14:09:11;;;;;;;;;;;32.20;36.20;;;;;;5080648;28;20396;-87
2022/05/20 14:11:38;;;;;;;;;;;31.90;36.60;;;;;;5065434;28;19917;-87
2022/05/20 14:14:05;;;;;;;;;;;31.70;37.00;;;;;;5063278;28;20031;-87
2022/05/20 14:16:33;;;;;;;;;;;31.50;37.60;;;;;;5082332;28;19916;-88
2022/05/20 14:19:01;;;;;;;;;;;31.20;38.00;;;;;;5081128;28;20367;-88
2022/05/20 14:21:34;;;;;;;;;;;30.90;38.40;;;;;;5069729;28;19916;-88
2022/05/20 14:24:05;;;;;;;;;;;30.70;38.90;;;;;;5065544;28;19920;-87
2022/05/20 14:26:35;;;;;;;;;;;30.50;39.50;;;;;;5072476;28;19920;-86
2022/05/20 14:29:00;;;;;;;;;;;30.30;39.80;;;;;;5070234;28;19959;-88
2022/05/20 14:31:31;;;;;;;;;;;30.20;40.20;;;;;;5079847;28;20382;-87
2022/05/20 14:34:01;;;;;;;;;;;30.00;40.70;;;;;;5057186;28;19912;-88
2022/05/20 14:36:28;;;;;;;;;;;29.80;41.40;;;;;;5056618;28;19920;-87
2022/05/20 14:38:57;;;;;;;;;;;29.40;46.00;;;;;;5062701;28;19900;-90
2022/05/20 14:41:24;;;;;;;;;;;28.80;52.40;;;;;;5054504;28;20347;-89
2022/05/20 14:43:55;;;;;;;;;;;28.20;54.70;;;;;;5069919;28;19916;-89
2022/05/20 14:49:14;;;;;;;;;;;27.20;58.50;;;;;;5078495;28;19969;-89
2022/05/20 14:51:42;;;;;;;;;;;26.80;59.90;;;;;;5067352;28;20030;-90
2022/05/20 14:54:12;;;;;;;;;;;26.60;60.50;;;;;;5076406;28;19978;-89
2022/05/20 14:56:43;;;;;;;;;;;26.20;61.00;;;;;;5055394;28;19920;-90
2022/05/20 14:59:10;;;;;;;;;;;25.80;62.40;;;;;;5054343;28;20008;-89
2022/05/20 15:01:36;;;;;;;;;;;25.60;63.10;;;;;;5061539;28;20304;-89
2022/05/20 15:04:02;;;;;;;;;;;25.40;63.70;;;;;;5067893;28;19952;-89
2022/05/20 15:06:31;;;;;;;;;;;25.30;64.40;;;;;;5078156;28;20296;-89